Time;durP1;ratioP1;P1;durP2;ratioP2;P2;SDS_P1;SDS_P2;PMS_P1;PMS_P2;Temp;Humidity;BMP_temperature;BMP_pressure;BME280_temperature;BME280_humidity;BME280_pressure;Samples;Min_cycle;Max_cycle;Signal;HPM_P1;HPM_P2
2023/09/15 00:02:07;;;;;;;3.20;1.70;;;13.10;79.40;;;;;;939900;149;27360;-76
2023/09/15 00:04:33;;;;;;;2.37;2.00;;;13.00;80.30;;;;;;931277;151;27415;-76
2023/09/15 00:06:59;;;;;;;2.67;1.70;;;13.00;80.60;;;;;;917214;152;27376;-76
2023/09/15 00:09:26;;;;;;;1.83;1.70;;;13.00;80.90;;;;;;933207;149;27370;-76
2023/09/15 00:11:55;;;;;;;2.70;2.33;;;13.00;81.20;;;;;;932278;152;27463;-76
2023/09/15 00:14:19;;;;;;;1.83;1.73;;;13.00;81.60;;;;;;933391;150;27457;-76
2023/09/15 00:16:46;;;;;;;2.43;2.10;;;13.00;82.00;;;;;;933443;149;27305;-76
2023/09/15 00:19:14;;;;;;;3.63;1.97;;;13.00;82.40;;;;;;933051;149;27313;-76
2023/09/15 00:21:39;;;;;;;2.23;1.60;;;13.10;82.90;;;;;;930640;151;27350;-74
2023/09/15 00:24:08;;;;;;;2.10;1.60;;;13.00;83.20;;;;;;940576;151;27529;-76
2023/09/15 00:26:35;;;;;;;2.93;1.70;;;13.10;83.70;;;;;;938978;149;27329;-76
2023/09/15 00:29:02;;;;;;;2.30;1.70;;;13.10;84.20;;;;;;933423;149;27454;-76
2023/09/15 00:31:28;;;;;;;2.70;2.10;;;13.10;84.60;;;;;;932682;151;27360;-74
2023/09/15 00:33:55;;;;;;;3.87;2.00;;;13.10;85.10;;;;;;930003;152;27486;-76
2023/09/15 00:36:21;;;;;;;2.20;2.00;;;13.10;85.60;;;;;;944630;149;27437;-73
2023/09/15 00:38:48;;;;;;;3.13;2.20;;;13.10;85.90;;;;;;946288;148;27326;-74
2023/09/15 00:41:14;;;;;;;4.37;2.20;;;13.10;86.10;;;;;;941653;149;27361;-73
2023/09/15 00:43:41;;;;;;;3.30;1.93;;;13.10;86.60;;;;;;944669;149;27356;-75
2023/09/15 00:46:08;;;;;;;2.10;1.87;;;13.10;87.90;;;;;;939580;150;27433;-72
2023/09/15 00:48:34;;;;;;;1.90;1.70;;;13.10;87.60;;;;;;936897;150;27354;-72
2023/09/15 00:51:06;;;;;;;2.10;1.83;;;13.10;88.10;;;;;;933935;151;27488;-72
2023/09/15 00:53:27;;;;;;;2.83;1.87;;;13.10;88.50;;;;;;934505;151;27287;-74
2023/09/15 00:55:54;;;;;;;2.43;1.80;;;13.10;89.60;;;;;;934634;149;27358;-72
2023/09/15 00:58:21;;;;;;;2.10;1.60;;;13.10;89.50;;;;;;950837;146;27337;-72
2023/09/15 01:00:47;;;;;;;2.33;1.80;;;13.10;89.60;;;;;;949347;146;27357;-73
2023/09/15 01:03:17;;;;;;;1.93;1.70;;;13.10;89.60;;;;;;950372;146;27285;-73
2023/09/15 01:05:43;;;;;;;2.00;1.80;;;13.10;89.60;;;;;;940569;146;27473;-72
2023/09/15 01:08:10;;;;;;;2.07;1.70;;;13.00;89.50;;;;;;946584;146;27464;-72
2023/09/15 02:16:42;;;;;;;6.23;2.00;;;11.80;93.40;;;;;;955458;147;27347;-75
2023/09/15 02:19:06;;;;;;;2.73;1.80;;;11.80;93.60;;;;;;934316;150;27499;-75
2023/09/15 02:21:33;;;;;;;3.70;2.00;;;11.70;94.10;;;;;;958491;146;27361;-75
2023/09/15 02:24:02;;;;;;;2.17;1.83;;;11.70;94.30;;;;;;937603;149;27726;-75
2023/09/15 02:26:26;;;;;;;3.70;1.77;;;11.70;94.70;;;;;;938821;149;27401;-75
2023/09/15 02:28:53;;;;;;;6.33;2.17;;;11.70;94.80;;;;;;946722;147;27328;-75
2023/09/15 02:31:19;;;;;;;2.33;1.70;;;11.70;95.00;;;;;;958026;146;27841;-75
2023/09/15 02:33:46;;;;;;;1.70;1.57;;;11.70;95.30;;;;;;959350;147;27363;-75
2023/09/15 02:36:13;;;;;;;1.57;1.47;;;11.70;95.40;;;;;;931388;150;27391;-75
2023/09/15 02:38:39;;;;;;;2.60;1.97;;;11.70;95.60;;;;;;955179;146;27335;-75
2023/09/15 02:41:06;;;;;;;1.63;1.53;;;11.70;95.80;;;;;;956544;146;27354;-75
2023/09/15 02:43:32;;;;;;;2.27;2.03;;;11.60;96.20;;;;;;955828;146;27352;-75
2023/09/15 02:46:02;;;;;;;1.63;1.53;;;11.70;96.50;;;;;;944927;148;27304;-75
2023/09/15 02:48:28;;;;;;;2.27;1.80;;;11.60;96.60;;;;;;933835;149;27440;-75
2023/09/15 02:50:55;;;;;;;1.87;1.60;;;11.70;96.80;;;;;;951693;147;27453;-75
2023/09/15 02:53:21;;;;;;;1.93;1.83;;;11.60;96.90;;;;;;941307;148;27743;-75
2023/09/15 02:55:54;;;;;;;1.43;1.33;;;11.60;97.40;;;;;;945159;147;27445;-75
2023/09/15 02:58:21;;;;;;;2.50;1.70;;;11.60;97.30;;;;;;944188;147;27258;-75
2023/09/15 03:00:48;;;;;;;1.80;1.70;;;11.60;97.40;;;;;;933173;149;27340;-75
2023/09/15 03:03:14;;;;;;;2.20;2.00;;;11.60;97.70;;;;;;934963;149;27373;-75
2023/09/15 03:05:41;;;;;;;1.90;1.77;;;11.60;98.10;;;;;;950548;147;27434;-75
2023/09/15 03:08:10;;;;;;;1.67;1.57;;;11.60;98.30;;;;;;950844;147;27414;-75
2023/09/15 03:10:36;;;;;;;2.23;2.10;;;11.60;98.50;;;;;;938786;149;27353;-75
2023/09/15 03:13:05;;;;;;;2.10;1.90;;;11.70;98.60;;;;;;951686;147;27435;-75
2023/09/15 03:15:30;;;;;;;2.10;1.90;;;11.70;98.70;;;;;;949374;147;27803;-75
2023/09/15 03:17:56;;;;;;;2.67;1.70;;;11.70;98.80;;;;;;940481;149;27528;-75
2023/09/15 03:20:23;;;;;;;3.37;1.77;;;11.70;98.90;;;;;;934600;152;27329;-75
2023/09/15 03:22:49;;;;;;;2.47;2.27;;;11.70;99.10;;;;;;932614;152;27300;-75
2023/09/15 03:25:17;;;;;;;1.80;1.67;;;11.70;99.20;;;;;;932740;152;27463;-75
2023/09/15 03:27:43;;;;;;;2.10;1.90;;;11.70;99.20;;;;;;932367;152;27425;-75
2023/09/15 03:30:10;;;;;;;2.37;1.60;;;11.70;99.40;;;;;;933204;151;27330;-75
2023/09/15 03:32:36;;;;;;;2.33;1.87;;;11.70;99.40;;;;;;934497;151;27352;-75
2023/09/15 03:35:05;;;;;;;2.20;1.70;;;11.70;99.50;;;;;;931289;152;27363;-75
2023/09/15 03:37:30;;;;;;;2.93;2.23;;;11.70;99.60;;;;;;933238;151;27928;-75
2023/09/15 03:39:56;;;;;;;3.50;2.23;;;11.70;99.70;;;;;;934273;152;27339;-75
2023/09/15 03:42:22;;;;;;;2.33;2.13;;;11.70;99.90;;;;;;933404;152;27281;-75
2023/09/15 03:44:49;;;;;;;2.17;1.97;;;11.80;99.90;;;;;;934792;152;27354;-75
2023/09/15 03:47:15;;;;;;;2.00;1.90;;;11.80;99.90;;;;;;936512;149;27367;-75
2023/09/15 03:49:42;;;;;;;2.87;2.20;;;11.80;99.90;;;;;;940127;149;27361;-75
2023/09/15 03:52:08;;;;;;;1.97;1.77;;;11.80;99.90;;;;;;941488;149;27425;-75
2023/09/15 03:54:35;;;;;;;2.00;1.90;;;11.80;99.90;;;;;;930666;151;27351;-75
2023/09/15 03:57:03;;;;;;;2.13;1.87;;;11.80;99.90;;;;;;931025;151;27402;-75
2023/09/15 03:59:28;;;;;;;1.80;1.70;;;11.80;99.90;;;;;;932012;151;27338;-75
2023/09/15 04:01:55;;;;;;;3.37;2.00;;;11.80;99.90;;;;;;923864;150;27328;-75
2023/09/15 04:04:21;;;;;;;1.90;1.80;;;11.80;99.90;;;;;;946747;149;27411;-75
2023/09/15 04:06:48;;;;;;;1.90;1.80;;;11.80;99.90;;;;;;948148;149;27519;-75
2023/09/15 04:09:15;;;;;;;2.13;1.57;;;11.80;99.90;;;;;;945595;149;27790;-75
2023/09/15 04:11:41;;;;;;;3.10;1.73;;;11.80;99.90;;;;;;932385;150;27449;-75
2023/09/15 04:14:08;;;;;;;2.73;2.43;;;11.70;99.90;;;;;;947164;149;27355;-75
2023/09/15 04:16:35;;;;;;;2.10;1.90;;;11.70;99.90;;;;;;945770;149;27459;-75
2023/09/15 04:19:01;;;;;;;2.70;2.10;;;11.70;99.90;;;;;;941462;151;27387;-75
2023/09/15 04:21:28;;;;;;;3.60;1.73;;;11.70;99.90;;;;;;931862;152;27307;-75
2023/09/15 04:23:54;;;;;;;2.23;1.97;;;11.70;99.90;;;;;;928543;151;27342;-75
2023/09/15 04:26:21;;;;;;;2.97;1.87;;;11.70;99.90;;;;;;933742;150;27428;-75
2023/09/15 04:28:47;;;;;;;1.87;1.70;;;11.70;99.90;;;;;;930897;151;27369;-75
2023/09/15 04:31:14;;;;;;;4.73;2.23;;;11.70;99.90;;;;;;930835;151;28448;-75
2023/09/15 04:33:40;;;;;;;1.90;1.80;;;11.70;99.90;;;;;;932503;151;27443;-75
2023/09/15 04:36:07;;;;;;;3.23;2.30;;;11.70;99.90;;;;;;937846;149;27356;-75
2023/09/15 04:38:34;;;;;;;2.23;1.90;;;11.70;99.90;;;;;;949942;146;27288;-75
2023/09/15 04:41:00;;;;;;;3.20;2.17;;;11.70;99.90;;;;;;933999;148;28083;-75
2023/09/15 04:43:29;;;;;;;3.00;2.30;;;11.70;99.90;;;;;;937766;149;27337;-75
2023/09/15 04:45:53;;;;;;;3.53;2.17;;;11.70;99.90;;;;;;935382;149;27334;-75
2023/09/15 04:48:20;;;;;;;2.23;2.10;;;11.70;99.90;;;;;;937916;149;27306;-75
2023/09/15 04:50:47;;;;;;;2.07;1.90;;;11.70;99.90;;;;;;945668;147;27447;-75
2023/09/15 04:53:14;;;;;;;3.37;1.77;;;11.70;99.90;;;;;;936556;150;27345;-75
2023/09/15 04:55:40;;;;;;;2.77;2.17;;;11.70;99.90;;;;;;939569;148;27356;-75
2023/09/15 04:58:06;;;;;;;2.10;1.90;;;11.70;99.90;;;;;;936239;149;27255;-75
2023/09/15 05:00:34;;;;;;;2.23;2.03;;;11.70;99.90;;;;;;949296;147;27393;-75
2023/09/15 05:03:00;;;;;;;3.10;2.83;;;11.70;99.90;;;;;;931045;152;27748;-75
2023/09/15 05:05:26;;;;;;;3.73;3.30;;;11.70;99.90;;;;;;949116;146;27326;-75
2023/09/15 05:07:53;;;;;;;4.33;3.53;;;11.70;99.90;;;;;;926748;151;27285;-75
2023/09/15 05:10:19;;;;;;;6.33;3.60;;;11.70;99.90;;;;;;934695;149;27978;-74
2023/09/15 05:12:46;;;;;;;4.57;2.93;;;11.70;99.90;;;;;;953990;147;27352;-75
2023/09/15 05:15:12;;;;;;;4.47;3.07;;;11.70;99.90;;;;;;950209;146;27396;-75
2023/09/15 05:17:39;;;;;;;5.23;3.23;;;11.70;99.90;;;;;;937581;149;27358;-75
2023/09/15 05:20:06;;;;;;;2.70;2.50;;;11.80;99.90;;;;;;937801;149;27413;-75
2023/09/15 05:22:32;;;;;;;4.40;2.50;;;11.90;99.90;;;;;;938595;149;27349;-75
2023/09/15 05:24:59;;;;;;;4.50;2.77;;;11.90;99.90;;;;;;953643;146;27368;-75
2023/09/15 05:27:26;;;;;;;2.80;2.60;;;12.00;99.90;;;;;;938045;149;27313;-75
2023/09/15 05:29:52;;;;;;;2.50;2.30;;;12.10;99.90;;;;;;951266;146;27287;-75
2023/09/15 05:32:19;;;;;;;3.73;2.53;;;12.30;99.90;;;;;;927865;151;27406;-75
2023/09/15 05:34:45;;;;;;;2.50;2.30;;;12.50;99.90;;;;;;940980;147;27327;-75
2023/09/15 05:37:12;;;;;;;2.07;1.97;;;12.80;99.90;;;;;;934022;149;27455;-75
2023/09/15 05:39:39;;;;;;;2.05;1.85;;;13.20;99.90;;;;;;934256;149;27293;-75
2023/09/15 05:42:05;;;;;;;3.98;2.47;;;13.50;99.90;;;;;;936808;149;27810;-75
2023/09/15 05:44:32;;;;;;;4.20;2.35;;;13.90;99.90;;;;;;950333;146;27408;-75
2023/09/15 05:46:58;;;;;;;2.47;2.02;;;14.40;99.90;;;;;;948995;146;27370;-75
2023/09/15 05:49:25;;;;;;;3.10;2.33;;;14.90;99.90;;;;;;938067;149;27435;-75
2023/09/15 05:51:51;;;;;;;3.27;1.95;;;15.30;99.90;;;;;;936452;149;27402;-76
2023/09/15 05:54:18;;;;;;;2.98;1.70;;;15.80;99.90;;;;;;935240;149;27426;-75
2023/09/15 05:56:45;;;;;;;2.08;1.87;;;16.40;99.90;;;;;;935751;149;27785;-75
2023/09/15 05:59:11;;;;;;;3.20;1.95;;;16.90;99.90;;;;;;934331;149;28211;-76
2023/09/15 06:01:39;;;;;;;3.15;1.85;;;17.40;99.90;;;;;;935945;149;27411;-75
2023/09/15 06:04:07;;;;;;;3.10;2.15;;;18.00;99.90;;;;;;936832;149;27408;-75
2023/09/15 06:06:31;;;;;;;4.87;1.77;;;18.50;99.90;;;;;;935861;149;27293;-76
2023/09/15 06:08:58;;;;;;;2.70;2.12;;;19.10;99.90;;;;;;936087;149;27404;-76
2023/09/15 06:11:24;;;;;;;1.55;1.45;;;19.70;99.90;;;;;;932990;150;27330;-76
2023/09/15 06:13:51;;;;;;;1.98;1.72;;;20.30;98.00;;;;;;934626;149;27796;-76
2023/09/15 06:16:17;;;;;;;2.12;1.70;;;20.90;96.30;;;;;;935072;148;27320;-76
2023/09/15 06:18:45;;;;;;;2.47;1.87;;;21.50;93.90;;;;;;931798;149;27311;-76
2023/09/15 06:21:11;;;;;;;1.90;1.80;;;22.10;92.30;;;;;;921712;151;27571;-76
2023/09/15 06:23:37;;;;;;;3.08;1.90;;;22.70;90.20;;;;;;922064;151;27340;-76
2023/09/15 06:26:04;;;;;;;2.27;2.08;;;23.30;86.30;;;;;;921739;151;27401;-75
2023/09/15 06:28:30;;;;;;;2.65;2.15;;;23.80;83.60;;;;;;922256;152;27445;-74
2023/09/15 06:30:57;;;;;;;4.15;2.70;;;24.30;80.90;;;;;;903348;154;27279;-74
2023/09/15 06:33:24;;;;;;;2.92;1.90;;;24.90;78.80;;;;;;920385;152;27362;-74
2023/09/15 06:35:50;;;;;;;2.27;2.08;;;25.40;76.70;;;;;;920987;152;27372;-74
2023/09/15 06:38:17;;;;;;;2.80;2.10;;;25.90;74.30;;;;;;922174;151;27485;-76
2023/09/15 06:40:44;;;;;;;3.15;2.05;;;26.30;72.10;;;;;;921011;152;27445;-74
2023/09/15 06:43:10;;;;;;;3.67;2.30;;;26.70;70.40;;;;;;919620;152;27743;-74
2023/09/15 06:45:36;;;;;;;2.45;2.10;;;27.10;69.00;;;;;;920835;151;27385;-75
2023/09/15 06:48:03;;;;;;;5.45;2.17;;;27.50;68.00;;;;;;920525;152;27313;-76
2023/09/15 06:50:30;;;;;;;2.77;1.90;;;27.90;67.20;;;;;;915819;151;27407;-75
2023/09/15 06:52:56;;;;;;;2.72;2.37;;;28.30;66.20;;;;;;922133;150;27694;-74
2023/09/15 06:55:23;;;;;;;2.10;1.98;;;28.70;65.20;;;;;;921177;151;27437;-74
2023/09/15 06:57:51;;;;;;;2.67;2.47;;;29.10;64.30;;;;;;921760;151;27399;-75
2023/09/15 07:00:16;;;;;;;2.77;2.30;;;29.60;63.30;;;;;;920721;151;27396;-75
2023/09/15 07:02:43;;;;;;;3.55;2.20;;;30.10;62.30;;;;;;921734;151;27432;-75
2023/09/15 07:05:10;;;;;;;4.20;2.60;;;30.50;61.10;;;;;;923877;151;27385;-74
2023/09/15 07:07:36;;;;;;;3.95;2.50;;;30.90;60.20;;;;;;923446;151;27317;-74
2023/09/15 07:10:04;;;;;;;5.12;2.60;;;31.40;59.40;;;;;;920595;151;27433;-76
2023/09/15 07:12:29;;;;;;;3.42;2.70;;;31.80;58.40;;;;;;922478;150;27484;-76
2023/09/15 07:14:56;;;;;;;2.45;2.25;;;32.10;57.70;;;;;;930769;148;27394;-74
2023/09/15 07:17:22;;;;;;;2.80;2.45;;;32.40;57.40;;;;;;931173;148;27349;-74
2023/09/15 07:19:49;;;;;;;4.58;2.72;;;32.80;56.30;;;;;;935054;148;27431;-76
2023/09/15 07:22:15;;;;;;;2.85;2.55;;;33.10;55.60;;;;;;930460;150;27377;-74
2023/09/15 07:24:42;;;;;;;5.03;2.55;;;33.40;55.00;;;;;;941321;149;27270;-73
2023/09/15 07:27:08;;;;;;;6.65;2.80;;;33.70;54.70;;;;;;931182;151;26307;-74
2023/09/15 07:29:35;;;;;;;2.98;2.67;;;34.10;54.00;;;;;;927805;151;27437;-74
2023/09/15 07:32:02;;;;;;;3.67;2.80;;;34.50;53.60;;;;;;947252;149;27783;-74
2023/09/15 07:34:28;;;;;;;3.10;2.62;;;34.80;52.30;;;;;;947120;149;26243;-75
2023/09/15 07:36:55;;;;;;;2.77;2.55;;;35.10;52.00;;;;;;948372;148;26242;-76
2023/09/15 07:39:21;;;;;;;2.80;2.50;;;35.40;51.50;;;;;;946688;148;26222;-76
2023/09/15 07:41:48;;;;;;;4.58;2.70;;;35.70;51.70;;;;;;938116;150;26264;-76
2023/09/15 07:44:15;;;;;;;2.65;2.45;;;36.00;50.40;;;;;;941482;149;26344;-76
2023/09/15 07:46:41;;;;;;;2.60;2.40;;;36.30;50.00;;;;;;930583;151;26237;-76
2023/09/15 07:49:08;;;;;;;3.92;2.62;;;36.50;49.40;;;;;;931079;151;26334;-76
2023/09/15 07:51:34;;;;;;;3.98;2.65;;;36.80;49.00;;;;;;929905;151;26333;-76
2023/09/15 07:54:01;;;;;;;2.85;2.52;;;37.00;48.40;;;;;;930906;152;26286;-77
2023/09/15 07:56:28;;;;;;;2.70;2.50;;;37.30;47.90;;;;;;930740;151;26182;-76
2023/09/15 07:58:54;;;;;;;2.80;2.60;;;37.40;47.40;;;;;;930415;151;26290;-77
2023/09/15 08:01:21;;;;;;;3.77;2.92;;;37.60;47.00;;;;;;928757;151;26242;-76
2023/09/15 08:03:47;;;;;;;3.40;3.10;;;37.90;46.50;;;;;;931794;151;26371;-76
2023/09/15 08:06:15;;;;;;;2.83;2.62;;;38.00;46.00;;;;;;947759;149;26282;-76
2023/09/15 08:08:42;;;;;;;3.75;2.92;;;38.20;45.70;;;;;;927319;151;26679;-76
2023/09/15 08:11:07;;;;;;;2.77;2.55;;;38.40;45.30;;;;;;946251;148;26318;-76
2023/09/15 08:13:34;;;;;;;3.27;2.98;;;38.60;45.00;;;;;;927346;151;26343;-74
2023/09/15 08:16:00;;;;;;;2.60;2.40;;;38.80;44.70;;;;;;931207;152;26264;-73
2023/09/15 08:18:27;;;;;;;2.70;2.35;;;38.90;44.30;;;;;;931053;151;26387;-74
2023/09/15 08:20:53;;;;;;;2.55;2.35;;;39.20;44.00;;;;;;929360;151;26274;-74
2023/09/15 08:23:20;;;;;;;2.65;2.45;;;39.40;43.50;;;;;;929305;152;26305;-74
2023/09/15 08:25:47;;;;;;;4.92;2.62;;;39.60;42.90;;;;;;938728;151;26362;-74
2023/09/15 08:28:13;;;;;;;2.65;2.45;;;39.80;42.50;;;;;;933476;151;26737;-74
2023/09/15 08:30:40;;;;;;;2.80;2.60;;;39.90;42.00;;;;;;935049;149;26266;-74
2023/09/15 08:33:06;;;;;;;2.67;2.47;;;40.10;41.80;;;;;;933989;152;26213;-74
2023/09/15 08:35:33;;;;;;;2.47;2.27;;;40.20;41.30;;;;;;932869;151;26374;-74
2023/09/15 08:38:00;;;;;;;2.37;2.17;;;40.40;41.00;;;;;;933844;151;26381;-74
2023/09/15 08:40:26;;;;;;;3.90;2.40;;;40.50;40.80;;;;;;931656;151;26327;-74
2023/09/15 08:42:53;;;;;;;2.70;2.25;;;40.60;40.30;;;;;;933623;149;26259;-74
2023/09/15 08:45:20;;;;;;;2.83;2.52;;;40.70;40.10;;;;;;934563;149;26342;-74
2023/09/15 08:47:46;;;;;;;3.25;2.37;;;40.70;40.00;;;;;;934750;152;26367;-71
2023/09/15 08:50:13;;;;;;;2.75;2.10;;;40.70;39.70;;;;;;932979;151;26211;-73
2023/09/15 08:52:39;;;;;;;2.62;2.42;;;40.80;39.50;;;;;;932517;151;26357;-72
2023/09/15 08:55:09;;;;;;;2.08;1.98;;;40.90;39.30;;;;;;932031;152;26373;-75
2023/09/15 08:57:35;;;;;;;2.12;2.02;;;40.90;39.00;;;;;;931258;151;26624;-72
2023/09/15 09:00:03;;;;;;;2.27;2.08;;;41.00;38.90;;;;;;932453;149;26343;-73
2023/09/15 09:02:28;;;;;;;2.35;2.17;;;41.00;38.60;;;;;;932992;151;26362;-73
2023/09/15 09:04:55;;;;;;;3.45;2.30;;;41.00;38.10;;;;;;934396;149;26178;-72
2023/09/15 09:07:21;;;;;;;2.10;2.00;;;41.00;37.80;;;;;;933573;151;26269;-72
2023/09/15 09:09:48;;;;;;;3.15;2.08;;;40.90;37.60;;;;;;932369;152;26333;-72
2023/09/15 09:12:15;;;;;;;2.47;2.20;;;40.80;37.70;;;;;;933580;149;26287;-72
2023/09/15 09:14:41;;;;;;;2.58;2.37;;;40.70;37.60;;;;;;934076;151;26208;-72
2023/09/15 09:17:11;;;;;;;2.42;2.22;;;40.70;37.60;;;;;;933229;149;26261;-74
2023/09/15 09:19:35;;;;;;;2.87;2.30;;;40.70;37.60;;;;;;935101;152;26269;-71
2023/09/15 09:22:01;;;;;;;2.55;2.33;;;40.70;37.60;;;;;;933873;150;26209;-72
2023/09/15 09:24:28;;;;;;;2.42;2.22;;;40.70;37.40;;;;;;941252;149;26369;-72
2023/09/15 09:26:57;;;;;;;2.42;2.22;;;40.70;37.30;;;;;;940482;148;26237;-73
2023/09/15 09:29:26;;;;;;;2.30;2.10;;;40.70;37.30;;;;;;940711;149;26277;-72
2023/09/15 09:31:53;;;;;;;2.62;2.42;;;40.70;37.20;;;;;;951334;146;26266;-73
2023/09/15 09:34:19;;;;;;;2.08;1.92;;;40.70;37.00;;;;;;940144;149;26252;-73
2023/09/15 09:36:49;;;;;;;2.67;2.20;;;40.60;36.80;;;;;;951431;147;26247;-72
2023/09/15 09:39:15;;;;;;;2.92;2.20;;;40.50;36.60;;;;;;936308;149;26267;-73
2023/09/15 09:41:42;;;;;;;1.92;1.82;;;40.40;36.60;;;;;;937374;149;26227;-72
2023/09/15 09:44:08;;;;;;;2.98;2.33;;;40.20;36.60;;;;;;955860;146;26319;-73
2023/09/15 09:46:36;;;;;;;2.50;2.30;;;39.90;36.30;;;;;;928503;150;26275;-74
2023/09/15 09:49:02;;;;;;;2.95;2.20;;;39.60;36.10;;;;;;941135;148;26256;-72
2023/09/15 09:51:29;;;;;;;2.40;2.20;;;39.20;36.10;;;;;;942560;149;26372;-72
2023/09/15 09:53:57;;;;;;;2.25;2.15;;;38.80;36.40;;;;;;956031;146;26220;-73
2023/09/15 09:56:24;;;;;;;2.47;2.27;;;38.40;36.60;;;;;;961363;146;26282;-74
2023/09/15 09:58:50;;;;;;;2.37;2.20;;;37.90;36.80;;;;;;956417;146;28470;-74
2023/09/15 10:01:17;;;;;;;2.02;1.92;;;37.40;36.80;;;;;;951764;147;26197;-74
2023/09/15 10:03:44;;;;;;;3.62;2.65;;;36.90;36.80;;;;;;952038;149;27769;-74
2023/09/15 10:06:10;;;;;;;4.58;2.33;;;36.50;37.20;;;;;;958999;146;26350;-74
2023/09/15 10:08:41;;;;;;;3.25;2.20;;;36.00;37.40;;;;;;961426;146;27450;-74
2023/09/15 10:11:04;;;;;;;3.02;2.83;;;35.60;37.60;;;;;;959096;146;27264;-77
2023/09/15 10:13:30;;;;;;;2.35;2.25;;;35.10;37.80;;;;;;936493;150;27411;-77
2023/09/15 10:15:57;;;;;;;2.75;2.55;;;34.60;37.80;;;;;;951678;147;27335;-76
2023/09/15 10:18:23;;;;;;;3.15;2.62;;;34.20;38.40;;;;;;951838;146;27324;-76
2023/09/15 10:20:50;;;;;;;3.02;2.37;;;33.60;38.90;;;;;;951577;146;27272;-76
2023/09/15 10:23:16;;;;;;;2.65;2.45;;;33.20;39.20;;;;;;929765;150;27368;-76
2023/09/15 10:25:49;;;;;;;2.92;2.60;;;32.80;39.40;;;;;;928838;150;27419;-76
2023/09/15 10:28:17;;;;;;;2.50;2.33;;;32.40;39.70;;;;;;946206;148;27358;-76
2023/09/15 10:30:42;;;;;;;2.30;2.20;;;32.00;40.10;;;;;;952551;146;27333;-76
2023/09/15 10:33:11;;;;;;;2.80;2.42;;;31.60;40.60;;;;;;949389;146;27327;-76
2023/09/15 10:35:40;;;;;;;3.30;2.40;;;31.30;41.10;;;;;;954798;146;27325;-76
2023/09/15 10:38:07;;;;;;;2.60;2.40;;;30.90;41.40;;;;;;956028;146;27316;-76
2023/09/15 10:40:46;;;;;;;2.47;2.27;;;30.70;41.70;;;;;;944793;148;27409;-76
2023/09/15 10:43:12;;;;;;;2.65;2.45;;;30.40;42.60;;;;;;935459;149;27369;-76
2023/09/15 10:45:39;;;;;;;2.90;2.58;;;30.20;42.60;;;;;;941032;148;27678;-76
2023/09/15 10:48:05;;;;;;;3.50;2.42;;;30.00;42.90;;;;;;953157;146;27783;-77
2023/09/15 10:50:32;;;;;;;2.25;2.15;;;29.90;43.00;;;;;;948306;146;27332;-76
2023/09/15 10:53:08;;;;;;;3.20;2.50;;;29.70;43.00;;;;;;952216;146;27449;-76
2023/09/15 10:55:35;;;;;;;2.50;2.30;;;29.50;43.20;;;;;;937917;148;27478;-76
2023/09/15 10:58:01;;;;;;;2.65;2.37;;;29.30;43.50;;;;;;931499;151;27343;-76
2023/09/15 11:00:27;;;;;;;2.20;2.10;;;29.20;43.90;;;;;;949503;148;27329;-76
2023/09/15 11:02:54;;;;;;;4.90;2.35;;;29.00;43.90;;;;;;943164;149;27808;-76
2023/09/15 11:05:20;;;;;;;2.42;2.22;;;28.80;44.10;;;;;;943511;146;28007;-76
2023/09/15 11:07:47;;;;;;;2.25;2.15;;;28.70;44.30;;;;;;931668;148;27342;-73
2023/09/15 11:10:13;;;;;;;2.45;2.25;;;28.50;44.50;;;;;;929298;151;27308;-74
2023/09/15 11:12:40;;;;;;;2.27;2.10;;;28.40;44.90;;;;;;948898;146;27378;-75
2023/09/15 11:15:07;;;;;;;3.60;2.65;;;28.30;45.30;;;;;;964111;146;27300;-76
2023/09/15 11:17:33;;;;;;;1.98;1.87;;;28.20;45.40;;;;;;953486;146;27421;-75
2023/09/15 11:20:05;;;;;;;2.37;2.27;;;28.10;45.70;;;;;;953418;146;27279;-76
2023/09/15 11:22:26;;;;;;;2.40;2.22;;;28.10;46.20;;;;;;960545;146;27299;-75
2023/09/15 11:24:53;;;;;;;2.27;2.17;;;28.00;46.00;;;;;;942484;149;27495;-75
2023/09/15 11:27:20;;;;;;;3.52;2.22;;;28.00;46.00;;;;;;960232;148;27369;-77
2023/09/15 11:29:46;;;;;;;2.47;2.20;;;28.00;46.00;;;;;;961277;148;27476;-75
2023/09/15 11:32:13;;;;;;;3.85;1.80;;;28.00;46.00;;;;;;959491;146;27485;-75
2023/09/15 11:34:39;;;;;;;2.35;2.10;;;27.90;45.90;;;;;;959180;148;27339;-74
2023/09/15 11:37:06;;;;;;;1.90;1.80;;;27.90;45.90;;;;;;960414;148;27252;-77
2023/09/15 11:39:33;;;;;;;2.30;2.20;;;27.90;46.10;;;;;;962894;146;27351;-78
2023/09/15 11:42:01;;;;;;;2.10;2.00;;;27.90;46.20;;;;;;947370;148;27425;-74
2023/09/15 11:44:31;;;;;;;2.20;2.05;;;27.90;46.00;;;;;;959479;146;27281;-74
2023/09/15 11:47:01;;;;;;;1.82;1.72;;;28.00;46.00;;;;;;961280;146;27478;-76
2023/09/15 11:49:27;;;;;;;2.65;2.45;;;28.00;46.00;;;;;;961749;145;27426;-75
2023/09/15 11:51:57;;;;;;;3.17;2.30;;;28.00;45.90;;;;;;935944;149;27378;-74
2023/09/15 11:54:23;;;;;;;3.47;2.15;;;28.00;45.90;;;;;;931428;149;27375;-76
2023/09/15 11:56:50;;;;;;;2.30;2.20;;;28.10;45.60;;;;;;946509;146;27403;-74
2023/09/15 11:59:16;;;;;;;1.87;1.77;;;28.00;46.00;;;;;;949793;148;28774;-74
2023/09/15 12:01:43;;;;;;;1.75;1.65;;;28.00;45.90;;;;;;949014;147;27318;-75
2023/09/15 12:04:09;;;;;;;1.82;1.72;;;28.00;46.00;;;;;;949288;148;27341;-75
2023/09/15 12:06:36;;;;;;;1.90;1.80;;;28.00;45.80;;;;;;950024;148;27436;-77
2023/09/15 12:09:03;;;;;;;2.02;1.87;;;27.90;45.60;;;;;;936358;149;27880;-74
2023/09/15 12:11:29;;;;;;;2.00;1.90;;;27.90;45.60;;;;;;948768;147;27445;-75
2023/09/15 12:13:56;;;;;;;2.02;1.92;;;27.80;45.80;;;;;;949739;147;27768;-74
2023/09/15 12:16:26;;;;;;;2.20;2.00;;;27.80;45.90;;;;;;949677;148;27380;-77
2023/09/15 12:18:52;;;;;;;2.10;2.00;;;27.80;46.00;;;;;;949396;148;27352;-74
2023/09/15 12:21:24;;;;;;;2.10;2.00;;;27.70;46.00;;;;;;949410;148;27329;-74
2023/09/15 12:23:54;;;;;;;1.90;1.80;;;27.70;46.20;;;;;;942561;147;27446;-74
2023/09/15 12:26:17;;;;;;;1.80;1.70;;;27.70;46.60;;;;;;931492;152;27384;-75
2023/09/15 12:28:44;;;;;;;2.50;1.70;;;27.70;46.60;;;;;;932153;150;27513;-75
2023/09/15 12:31:20;;;;;;;1.72;1.57;;;27.70;46.40;;;;;;932327;152;28031;-77
2023/09/15 12:33:43;;;;;;;1.70;1.60;;;27.70;46.40;;;;;;932215;149;27279;-75
2023/09/15 12:36:09;;;;;;;1.42;1.32;;;27.70;46.30;;;;;;933066;150;27355;-75
2023/09/15 12:38:36;;;;;;;1.70;1.40;;;27.80;46.20;;;;;;934361;151;27452;-77
2023/09/15 12:41:03;;;;;;;1.70;1.60;;;27.80;46.10;;;;;;933980;149;27358;-75
2023/09/15 12:43:29;;;;;;;1.67;1.57;;;27.80;46.00;;;;;;933027;149;27984;-74
2023/09/15 12:45:56;;;;;;;2.65;2.22;;;27.80;46.00;;;;;;933156;152;27340;-75
2023/09/15 12:48:22;;;;;;;1.50;1.40;;;27.80;46.00;;;;;;932934;149;27439;-78
2023/09/15 12:50:49;;;;;;;1.42;1.30;;;27.80;45.90;;;;;;933698;149;27375;-74
2023/09/15 12:53:16;;;;;;;1.50;1.40;;;27.80;45.80;;;;;;934626;149;27398;-75
2023/09/15 12:55:42;;;;;;;1.50;1.40;;;27.80;45.90;;;;;;933294;152;27280;-74
2023/09/15 12:58:09;;;;;;;1.60;1.52;;;27.80;45.80;;;;;;934612;152;27417;-77
2023/09/15 13:00:35;;;;;;;1.47;1.37;;;27.70;45.90;;;;;;934228;151;27452;-76
2023/09/15 13:03:02;;;;;;;2.17;1.60;;;27.70;45.90;;;;;;933608;149;27309;-74
2023/09/15 13:05:29;;;;;;;1.80;1.67;;;27.70;45.90;;;;;;932770;151;27335;-75
2023/09/15 13:07:55;;;;;;;1.40;1.30;;;27.70;45.90;;;;;;933246;149;27332;-75
2023/09/15 13:10:22;;;;;;;1.67;1.57;;;27.70;45.90;;;;;;934066;151;27509;-77
2023/09/15 13:12:48;;;;;;;1.07;1.07;;;27.70;45.80;;;;;;934445;150;27464;-74
2023/09/15 13:15:15;;;;;;;1.70;1.60;;;27.70;45.80;;;;;;933538;152;27328;-75
2023/09/15 13:17:42;;;;;;;1.70;1.60;;;27.70;45.70;;;;;;932745;150;27967;-76
2023/09/15 13:20:08;;;;;;;1.77;1.40;;;27.70;45.70;;;;;;933242;151;27316;-77
2023/09/15 13:22:38;;;;;;;2.85;1.40;;;27.70;45.80;;;;;;935006;149;27434;-75
2023/09/15 13:25:04;;;;;;;2.08;1.65;;;27.70;45.90;;;;;;937516;150;27345;-75
2023/09/15 13:27:31;;;;;;;2.05;1.50;;;27.70;46.00;;;;;;934755;149;27405;-77
2023/09/15 13:29:57;;;;;;;1.50;1.40;;;27.70;46.00;;;;;;940903;149;27277;-77
2023/09/15 13:32:26;;;;;;;1.37;1.37;;;27.70;46.00;;;;;;942106;149;27826;-77
2023/09/15 13:34:56;;;;;;;1.40;1.30;;;27.70;46.00;;;;;;939858;149;27263;-77
2023/09/15 13:37:23;;;;;;;1.30;1.25;;;27.80;45.80;;;;;;940224;149;27443;-77
2023/09/15 13:39:49;;;;;;;1.50;1.40;;;27.80;45.80;;;;;;941902;149;27414;-77
2023/09/15 13:42:18;;;;;;;2.65;1.40;;;27.80;46.30;;;;;;941489;148;27759;-77
2023/09/15 13:44:45;;;;;;;1.55;1.45;;;27.80;45.70;;;;;;940204;149;27343;-77
2023/09/15 13:47:11;;;;;;;1.47;1.37;;;27.80;45.50;;;;;;941673;148;27263;-77
2023/09/15 13:49:40;;;;;;;1.62;1.52;;;27.80;45.60;;;;;;942357;149;27465;-77
2023/09/15 13:52:05;;;;;;;1.40;1.35;;;27.80;45.60;;;;;;941169;148;28067;-77